Time;durP1;ratioP1;P1;durP2;ratioP2;P2;SDS_P1;SDS_P2;PMS_P1;PMS_P2;Temp;Humidity;BMP_temperature;BMP_pressure;BME280_temperature;BME280_humidity;BME280_pressure;Samples;Min_cycle;Max_cycle;Signal;HPM_P1;HPM_P2
2023/08/18 00:03:08;;;;;;;62.03;38.15;;;;;;;-147.65;100.00;57646.63;10492769;28;20123;-81
2023/08/18 00:08:09;;;;;;;62.63;36.55;;;;;;;-147.65;100.00;57646.63;10524912;28;20487;-81
2023/08/18 00:13:10;;;;;;;65.85;36.53;;;;;;;-147.65;100.00;57646.63;10525126;28;20055;-82
2023/08/18 00:18:10;;;;;;;53.10;33.53;;;;;;;-147.65;100.00;57646.63;10498961;28;20032;-82
2023/08/18 00:23:11;;;;;;;63.42;35.15;;;;;;;-147.65;100.00;57646.63;10525418;28;20046;-82
2023/08/18 00:28:11;;;;;;;59.67;35.53;;;;;;;-147.65;100.00;57646.63;10508321;28;20036;-83
2023/08/18 00:33:12;;;;;;;71.22;35.80;;;;;;;-147.65;100.00;57646.63;10525937;28;20036;-83
2023/08/18 00:38:12;;;;;;;65.95;38.78;;;;;;;-147.65;100.00;57646.63;10525351;28;20059;-82
2023/08/18 00:43:13;;;;;;;73.18;40.30;;;;;;;-147.65;100.00;57646.63;10524111;28;20119;-82
2023/08/18 00:48:13;;;;;;;62.90;38.55;;;;;;;-147.65;100.00;57646.63;10525575;28;20585;-82
2023/08/18 00:53:14;;;;;;;56.38;31.10;;;;;;;-147.65;100.00;57646.63;10523898;28;20092;-82
2023/08/18 00:58:14;;;;;;;59.50;32.58;;;;;;;-147.65;100.00;57646.63;10524824;28;20040;-82
2023/08/18 01:03:15;;;;;;;64.60;38.85;;;;;;;-147.65;100.00;57646.63;10507488;28;20050;-82
2023/08/18 01:08:15;;;;;;;59.92;35.85;;;;;;;-147.65;100.00;57646.63;10523769;28;20134;-81
2023/08/18 01:13:32;;;;;;;57.53;35.65;;;;;;;-147.65;100.00;57646.63;10523918;28;20404;-81
2023/08/18 01:18:33;;;;;;;70.90;42.10;;;;;;;-147.65;100.00;57646.63;10525770;28;20135;-83
2023/08/18 01:23:39;;;;;;;78.57;42.35;;;;;;;-147.65;100.00;57646.63;10507277;28;20403;-82
2023/08/18 01:28:40;;;;;;;74.45;45.40;;;;;;;-147.65;100.00;57646.63;10524274;28;20032;-83
2023/08/18 01:34:07;;;;;;;88.97;49.03;;;;;;;-147.65;100.00;57646.63;10524788;28;20411;-82
2023/08/18 01:39:07;;;;;;;92.32;49.22;;;;;;;-147.65;100.00;57646.63;10509951;28;20073;-82
2023/08/18 01:44:08;;;;;;;82.22;48.42;;;;;;;-147.65;100.00;57646.63;10523235;28;20123;-82
2023/08/18 01:49:08;;;;;;;83.78;47.50;;;;;;;-147.65;100.00;57646.63;10530465;28;20028;-82
2023/08/18 01:54:09;;;;;;;83.72;48.22;;;;;;;-147.65;100.00;57646.63;10531904;28;20475;-82
2023/08/18 01:59:13;;;;;;;93.20;51.80;;;;;;;-147.65;100.00;57646.63;10532367;28;20031;-81
2023/08/18 02:04:13;;;;;;;93.88;50.20;;;;;;;-147.65;100.00;57646.63;10533348;28;20119;-83
2023/08/18 02:09:14;;;;;;;94.30;51.30;;;;;;;-147.65;100.00;57646.63;10530182;28;20062;-82
2023/08/18 02:14:15;;;;;;;102.45;52.92;;;;;;;-147.65;100.00;57646.63;10531623;28;20047;-82
2023/08/18 02:19:15;;;;;;;95.78;50.85;;;;;;;-147.65;100.00;57646.63;10529681;28;20055;-82
2023/08/18 02:24:16;;;;;;;76.63;45.83;;;;;;;-147.65;100.00;57646.63;10530011;28;20468;-82
2023/08/18 02:29:16;;;;;;;84.57;49.20;;;;;;;-147.65;100.00;57646.63;10529982;28;20036;-82
2023/08/18 02:34:17;;;;;;;95.35;52.00;;;;;;;-147.65;100.00;57646.63;10512903;28;20051;-81
2023/08/18 02:39:17;;;;;;;93.50;49.92;;;;;;;-147.65;100.00;57646.63;10528500;28;20032;-80
2023/08/18 02:44:18;;;;;;;97.45;55.67;;;;;;;-147.65;100.00;57646.63;10530597;28;20170;-82
2023/08/18 02:49:19;;;;;;;100.63;53.90;;;;;;;-147.65;100.00;57646.63;10528572;28;20584;-82
2023/08/18 02:54:19;;;;;;;104.90;54.45;;;;;;;-147.65;100.00;57646.63;10511721;28;20063;-83
2023/08/18 02:59:20;;;;;;;105.57;52.90;;;;;;;-147.65;100.00;57646.63;10501189;28;20040;-83
2023/08/18 03:04:20;;;;;;;118.15;59.85;;;;;;;-147.65;100.00;57646.63;10502471;28;20048;-83
2023/08/18 03:09:21;;;;;;;104.05;52.90;;;;;;;-147.65;100.00;57646.63;10527630;28;20189;-82
2023/08/18 03:14:22;;;;;;;94.78;50.70;;;;;;;-147.65;100.00;57646.63;10529395;28;20403;-83
2023/08/18 03:19:24;;;;;;;109.70;54.05;;;;;;;-147.65;100.00;57646.63;10528648;28;20042;-83
2023/08/18 03:24:25;;;;;;;108.00;57.25;;;;;;;-147.65;100.00;57646.63;10527384;28;20555;-83
2023/08/18 03:29:25;;;;;;;102.78;53.50;;;;;;;-147.65;100.00;57646.63;10529171;28;20043;-82
2023/08/18 03:34:26;;;;;;;95.38;53.50;;;;;;;-147.65;100.00;57646.63;10528257;28;20029;-83
2023/08/18 03:39:26;;;;;;;86.32;50.65;;;;;;;-147.65;100.00;57646.63;10527156;28;20086;-82
2023/08/18 03:44:27;;;;;;;90.47;50.15;;;;;;;-147.65;100.00;57646.63;10528884;28;20028;-81
2023/08/18 03:49:27;;;;;;;105.43;56.75;;;;;;;-147.65;100.00;57646.63;10526822;28;20032;-82
2023/08/18 03:54:28;;;;;;;96.93;53.05;;;;;;;-147.65;100.00;57646.63;10529058;28;20039;-81
2023/08/18 03:59:28;;;;;;;94.82;51.67;;;;;;;-147.65;100.00;57646.63;10526409;28;20080;-81
2023/08/18 04:04:29;;;;;;;92.40;50.33;;;;;;;-147.65;100.00;57646.63;10527423;28;20047;-81
2023/08/18 04:09:29;;;;;;;101.63;50.72;;;;;;;-147.65;100.00;57646.63;10526754;28;20052;-81
2023/08/18 04:14:30;;;;;;;92.53;50.03;;;;;;;-147.65;100.00;57646.63;10526800;28;20515;-82
2023/08/18 04:19:30;;;;;;;90.25;52.03;;;;;;;-147.65;100.00;57646.63;10504671;28;20491;-82
2023/08/18 04:24:31;;;;;;;96.07;51.55;;;;;;;-147.65;100.00;57646.63;10524941;28;20073;-82
2023/08/18 04:29:31;;;;;;;99.47;52.90;;;;;;;-147.65;100.00;57646.63;10525585;28;20441;-81
2023/08/18 04:34:32;;;;;;;98.10;52.60;;;;;;;-147.65;100.00;57646.63;10523711;28;20151;-80
2023/08/18 04:39:32;;;;;;;102.32;49.92;;;;;;;-147.65;100.00;57646.63;10507845;28;20051;-79
2023/08/18 04:44:33;;;;;;;120.70;56.47;;;;;;;-147.65;100.00;57646.63;10527479;28;20038;-79
2023/08/18 04:49:33;;;;;;;106.25;53.60;;;;;;;-147.65;100.00;57646.63;10506023;28;20460;-81
2023/08/18 04:54:34;;;;;;;127.57;64.03;;;;;;;-147.65;100.00;57646.63;10522990;28;20040;-80
2023/08/18 04:59:34;;;;;;;121.55;60.70;;;;;;;-147.65;100.00;57646.63;10508494;28;20059;-81
2023/08/18 05:04:35;;;;;;;123.68;62.38;;;;;;;-147.65;100.00;57646.63;10524822;28;20040;-80
2023/08/18 05:09:36;;;;;;;121.47;60.45;;;;;;;-147.65;100.00;57646.63;10523361;28;20036;-79
2023/08/18 05:14:36;;;;;;;133.43;57.35;;;;;;;-147.65;100.00;57646.63;10524052;28;20040;-80
2023/08/18 05:19:37;;;;;;;129.15;65.43;;;;;;;-147.65;100.00;57646.63;10507212;28;20394;-79
2023/08/18 05:24:37;;;;;;;134.18;59.58;;;;;;;-147.65;100.00;57646.63;10530952;28;20389;-79
2023/08/18 05:29:38;;;;;;;142.15;67.32;;;;;;;-147.65;100.00;57646.63;10532611;28;20036;-80
2023/08/18 05:34:38;;;;;;;155.57;68.30;;;;;;;-147.65;100.00;57646.63;10531039;28;20112;-81
2023/08/18 05:39:39;;;;;;;123.68;58.20;;;;;;;-147.65;100.00;57646.63;10531822;28;20046;-81
2023/08/18 05:44:41;;;;;;;145.77;64.53;;;;;;;-147.65;100.00;57646.63;10514457;28;20492;-81
2023/08/18 05:49:42;;;;;;;133.60;63.08;;;;;;;-147.65;100.00;57646.63;10472362;28;20082;-81
2023/08/18 05:54:42;;;;;;;133.20;67.80;;;;;;;-147.65;100.00;57646.63;10477270;28;20117;-82
2023/08/18 05:59:43;;;;;;;148.00;68.05;;;;;;;-147.65;100.00;57646.63;10506430;28;20024;-81
2023/08/18 06:04:44;;;;;;;136.80;62.80;;;;;;;-147.65;100.00;57646.63;10522167;28;20039;-79
2023/08/18 06:09:44;;;;;;;124.82;60.72;;;;;;;-147.65;100.00;57646.63;10513681;28;20032;-79
2023/08/18 06:14:45;;;;;;;123.25;58.03;;;;;;;-147.65;100.00;57646.63;10533066;28;20116;-79
2023/08/18 06:19:45;;;;;;;126.63;59.25;;;;;;;-147.65;100.00;57646.63;10529563;28;20047;-78
2023/08/18 06:24:46;;;;;;;114.60;53.55;;;;;;;-147.65;100.00;57646.63;10526726;28;20042;-79
2023/08/18 06:29:46;;;;;;;120.47;52.33;;;;;;;-147.65;100.00;57646.63;10529497;28;20081;-79
2023/08/18 06:34:47;;;;;;;121.93;59.17;;;;;;;-147.65;100.00;57646.63;10528490;28;20044;-79
2023/08/18 06:39:47;;;;;;;117.55;56.55;;;;;;;-147.65;100.00;57646.63;10529884;28;20054;-80
2023/08/18 06:44:48;;;;;;;115.80;54.78;;;;;;;-147.65;100.00;57646.63;10528718;28;20046;-79
2023/08/18 06:49:48;;;;;;;111.18;56.63;;;;;;;-147.65;100.00;57646.63;10531350;28;20391;-80
2023/08/18 06:54:49;;;;;;;110.28;56.25;;;;;;;-147.65;100.00;57646.63;10511655;28;20035;-82
2023/08/18 06:59:49;;;;;;;107.30;55.08;;;;;;;-147.65;100.00;57646.63;10511744;28;20051;-80
2023/08/18 07:04:50;;;;;;;120.53;60.88;;;;;;;-147.65;100.00;57646.63;10530843;28;20391;-79
2023/08/18 07:09:50;;;;;;;115.22;58.85;;;;;;;-147.65;100.00;57646.63;10528776;28;20036;-79
2023/08/18 07:14:51;;;;;;;114.55;57.20;;;;;;;-147.65;100.00;57646.63;10510672;28;20123;-79
2023/08/18 07:19:52;;;;;;;112.60;55.45;;;;;;;-147.65;100.00;57646.63;10510879;28;20052;-78
2023/08/18 07:24:52;;;;;;;95.47;50.00;;;;;;;-147.65;100.00;57646.63;10511299;28;20131;-79
2023/08/18 07:29:53;;;;;;;110.28;53.35;;;;;;;-147.65;100.00;57646.63;10527378;28;20036;-79
2023/08/18 07:34:53;;;;;;;121.25;55.35;;;;;;;-147.65;100.00;57646.63;10526429;28;20068;-78
2023/08/18 07:39:54;;;;;;;101.70;54.35;;;;;;;-147.65;100.00;57646.63;10528608;28;20032;-78
2023/08/18 07:44:55;;;;;;;108.75;55.95;;;;;;;-147.65;100.00;57646.63;10504897;28;20558;-78
2023/08/18 07:49:55;;;;;;;100.93;51.60;;;;;;;-147.65;100.00;57646.63;10524758;28;20118;-82
2023/08/18 07:54:56;;;;;;;99.22;52.58;;;;;;;-147.65;100.00;57646.63;10508791;28;20115;-81
2023/08/18 07:59:56;;;;;;;85.80;49.15;;;;;;;-147.65;100.00;57646.63;10525722;28;20046;-82
2023/08/18 08:04:57;;;;;;;83.78;45.05;;;;;;;-147.65;100.00;57646.63;10508934;28;20117;-81
2023/08/18 08:10:01;;;;;;;72.05;43.28;;;;;;;-147.65;100.00;57646.63;10526487;28;20476;-81
2023/08/18 08:15:05;;;;;;;80.32;44.92;;;;;;;-147.65;100.00;57646.63;10527955;28;20040;-81
2023/08/18 08:20:14;;;;;;;77.93;48.28;;;;;;;-147.65;100.00;57646.63;10524096;28;20425;-80
2023/08/18 08:25:14;;;;;;;68.05;41.85;;;;;;;-147.65;100.00;57646.63;10524948;28;20040;-82
2023/08/18 08:30:16;;;;;;;86.65;47.88;;;;;;;-147.65;100.00;57646.63;10507408;28;20373;-80
2023/08/18 08:35:16;;;;;;;78.30;46.78;;;;;;;-147.65;100.00;57646.63;10522759;28;20047;-79
2023/08/18 08:40:18;;;;;;;78.90;47.92;;;;;;;-147.65;100.00;57646.63;10508373;28;20039;-78
2023/08/18 08:45:19;;;;;;;83.95;51.20;;;;;;;-147.65;100.00;57646.63;10507307;28;20029;-80
2023/08/18 08:50:20;;;;;;;83.18;50.90;;;;;;;-147.65;100.00;57646.63;10526932;28;20065;-80
2023/08/18 08:55:22;;;;;;;84.53;49.08;;;;;;;-147.65;100.00;57646.63;10489600;28;20028;-79
2023/08/18 09:00:22;;;;;;;89.05;53.00;;;;;;;-147.65;100.00;57646.63;10507742;28;20032;-79
2023/08/18 09:05:28;;;;;;;73.47;47.10;;;;;;;-147.65;100.00;57646.63;10508015;28;20072;-79
2023/08/18 09:10:28;;;;;;;79.30;51.40;;;;;;;-147.65;100.00;57646.63;10524806;28;20032;-81
2023/08/18 09:15:29;;;;;;;92.90;52.25;;;;;;;-147.65;100.00;57646.63;10524073;28;20074;-80
2023/08/18 09:20:29;;;;;;;90.50;54.30;;;;;;;-147.65;100.00;57646.63;10506964;28;20445;-80
2023/08/18 09:25:32;;;;;;;87.00;54.28;;;;;;;-147.65;100.00;57646.63;10524542;28;20040;-80
2023/08/18 09:30:33;;;;;;;79.88;48.83;;;;;;;-147.65;100.00;57646.63;10507443;28;20047;-78
2023/08/18 09:35:34;;;;;;;73.70;49.60;;;;;;;-147.65;100.00;57646.63;10523383;28;20037;-79
2023/08/18 09:40:35;;;;;;;81.53;48.30;;;;;;;-147.65;100.00;57646.63;10523291;28;20036;-78
2023/08/18 09:45:40;;;;;;;69.45;49.85;;;;;;;-147.65;100.00;57646.63;10525018;28;20516;-78
2023/08/18 09:50:40;;;;;;;82.40;51.72;;;;;;;-147.65;100.00;57646.63;10507069;28;20044;-80
2023/08/18 09:55:44;;;;;;;78.87;46.80;;;;;;;-147.65;100.00;57646.63;10506123;28;20502;-79
2023/08/18 10:00:45;;;;;;;89.97;54.00;;;;;;;-147.65;100.00;57646.63;10524059;28;20036;-79
2023/08/18 10:05:46;;;;;;;93.43;54.87;;;;;;;-147.65;100.00;57646.63;10505552;28;20044;-79
2023/08/18 10:10:47;;;;;;;88.47;48.95;;;;;;;-147.65;100.00;57646.63;10511783;28;20040;-80
2023/08/18 10:15:47;;;;;;;86.67;52.43;;;;;;;-147.65;100.00;57646.63;10529804;28;20020;-80
2023/08/18 10:20:49;;;;;;;83.37;55.60;;;;;;;-147.65;100.00;57646.63;10530664;28;20075;-81
2023/08/18 10:25:50;;;;;;;92.55;54.20;;;;;;;-147.65;100.00;57646.63;10529372;28;20475;-80
2023/08/18 10:30:56;;;;;;;94.90;57.83;;;;;;;-147.65;100.00;57646.63;10488187;28;20036;-80
2023/08/18 10:35:57;;;;;;;103.03;53.92;;;;;;;-147.65;100.00;57646.63;10490129;28;20380;-81
2023/08/18 10:40:59;;;;;;;88.35;52.92;;;;;;;-147.65;100.00;57646.63;10471082;28;20044;-80
2023/08/18 10:46:00;;;;;;;77.38;50.65;;;;;;;-147.65;100.00;57646.63;10487003;28;20506;-80
2023/08/18 10:51:00;;;;;;;86.33;53.37;;;;;;;-147.65;100.00;57646.63;10487204;28;20123;-81
2023/08/18 10:56:01;;;;;;;74.83;50.87;;;;;;;-147.65;100.00;57646.63;10487771;28;20071;-81
2023/08/18 11:01:01;;;;;;;75.53;46.23;;;;;;;-147.65;100.00;57646.63;10503811;28;20119;-80
2023/08/18 11:06:02;;;;;;;72.20;47.27;;;;;;;-147.65;100.00;57646.63;10487738;28;20099;-81
2023/08/18 11:11:03;;;;;;;63.23;42.33;;;;;;;-147.65;100.00;57646.63;10469509;28;20119;-80
2023/08/18 11:16:03;;;;;;;63.40;45.60;;;;;;;-147.65;100.00;57646.63;10499175;28;20542;-77
2023/08/18 11:21:04;;;;;;;59.03;42.03;;;;;;;-147.65;100.00;57646.63;10525668;28;20044;-78
2023/08/18 11:26:05;;;;;;;51.67;38.50;;;;;;;-147.65;100.00;57646.63;10483929;28;20050;-78
2023/08/18 11:31:08;;;;;;;51.53;38.27;;;;;;;-147.65;100.00;57646.63;10511095;28;20047;-78
2023/08/18 11:36:14;;;;;;;61.92;40.53;;;;;;;-147.65;100.00;57646.63;10525508;28;20181;-79
2023/08/18 11:41:14;;;;;;;52.33;38.15;;;;;;;-147.65;100.00;57646.63;10527445;28;20040;-80
2023/08/18 11:46:15;;;;;;;50.50;39.57;;;;;;;-147.65;100.00;57646.63;10526301;28;20036;-80
2023/08/18 11:51:17;;;;;;;51.33;38.10;;;;;;;-147.65;100.00;57646.63;10525230;28;20376;-80
2023/08/18 11:56:19;;;;;;;41.05;33.50;;;;;;;-147.65;100.00;57646.63;10508779;28;20036;-80
2023/08/18 12:01:21;;;;;;;50.72;35.65;;;;;;;-147.65;100.00;57646.63;10508686;28;20086;-80
2023/08/18 12:06:23;;;;;;;41.35;34.20;;;;;;;-147.65;100.00;57646.63;10528239;28;20058;-80
2023/08/18 12:11:23;;;;;;;42.80;34.97;;;;;;;-147.65;100.00;57646.63;10487514;28;20040;-80
2023/08/18 12:16:24;;;;;;;47.50;34.85;;;;;;;-147.65;100.00;57646.63;10526748;28;20499;-78
2023/08/18 12:21:24;;;;;;;40.67;33.53;;;;;;;-147.65;100.00;57646.63;10524719;28;20484;-79
2023/08/18 12:26:25;;;;;;;40.17;32.20;;;;;;;-147.65;100.00;57646.63;10524464;28;20284;-79
2023/08/18 12:31:26;;;;;;;46.00;34.05;;;;;;;-147.65;100.00;57646.63;10524515;28;20060;-79
2023/08/18 12:36:26;;;;;;;34.10;30.00;;;;;;;-147.65;100.00;57646.63;10507729;28;20122;-79
2023/08/18 12:41:28;;;;;;;37.28;28.20;;;;;;;-147.65;100.00;57646.63;10508801;28;20494;-79
2023/08/18 12:46:29;;;;;;;34.92;28.80;;;;;;;-147.65;100.00;57646.63;10508028;28;20092;-79
2023/08/18 12:51:29;;;;;;;;;;;;;;;-147.65;100.00;57646.63;10526723;28;20071;-79
2023/08/18 12:56:30;;;;;;;33.10;26.70;;;;;;;-147.65;100.00;57646.63;10527232;28;19988;-80
2023/08/18 13:01:30;;;;;;;;;;;;;;;-147.65;100.00;57646.63;10526673;28;20050;-79
2023/08/18 13:06:31;;;;;;;29.93;22.90;;;;;;;-147.65;100.00;57646.63;10523941;28;19916;-79
2023/08/18 13:11:33;;;;;;;24.77;21.85;;;;;;;-147.65;100.00;57646.63;10525488;28;20395;-79
2023/08/18 13:16:33;;;;;;;23.48;20.95;;;;;;;-147.65;100.00;57646.63;10508500;28;20032;-80
2023/08/18 13:21:34;;;;;;;;;;;;;;;-147.65;100.00;57646.63;10524779;28;20415;-80
2023/08/18 13:26:37;;;;;;;24.73;19.53;;;;;;;-147.65;100.00;57646.63;10523267;28;20291;-80
2023/08/18 13:31:37;;;;;;;22.42;18.45;;;;;;;-147.65;100.00;57646.63;10525118;28;20093;-80
2023/08/18 13:36:39;;;;;;;;;;;;;;;-147.65;100.00;57646.63;10506764;28;20092;-79
2023/08/18 13:41:39;;;;;;;;;;;;;;;-147.65;100.00;57646.63;10508643;28;19915;-79
2023/08/18 13:46:40;;;;;;;18.70;16.47;;;;;;;-147.65;100.00;57646.63;10531908;28;19916;-81
2023/08/18 13:51:41;;;;;;;;;;;;;;;-147.65;100.00;57646.63;10534010;28;20527;-80
2023/08/18 13:56:42;;;;;;;18.43;16.63;;;;;;;-147.65;100.00;57646.63;10532999;28;19981;-79
2023/08/18 14:01:42;;;;;;;;;;;;;;;-147.65;100.00;57646.63;10515420;28;20043;-80
2023/08/18 14:06:43;;;;;;;19.27;16.60;;;;;;;-147.65;100.00;57646.63;10533149;28;20388;-80
2023/08/18 14:11:44;;;;;;;;;;;;;;;-147.65;100.00;57646.63;10531020;28;20492;-80
2023/08/18 14:16:45;;;;;;;13.80;12.40;;;;;;;-147.65;100.00;57646.63;10530287;28;19923;-80
2023/08/18 14:21:46;;;;;;;16.42;14.07;;;;;;;-147.65;100.00;57646.63;10532201;28;20063;-80
2023/08/18 14:26:46;;;;;;;;;;;;;;;-147.65;100.00;57646.63;10532210;28;20104;-80
2023/08/18 14:31:47;;;;;;;13.00;11.70;;;;;;;-147.65;100.00;57646.63;10532054;28;19920;-79
2023/08/18 14:36:47;;;;;;;;;;;;;;;-147.65;100.00;57646.63;10530693;28;20143;-80
2023/08/18 14:41:47;;;;;;;11.00;9.90;;;;;;;-147.65;100.00;57646.63;10530776;28;20379;-80
2023/08/18 14:46:48;;;;;;;;;;;;;;;-147.65;100.00;57646.63;10531776;28;20042;-79
2023/08/18 14:51:48;;;;;;;14.97;12.87;;;;;;;-147.65;100.00;57646.63;10530772;28;20016;-80
2023/08/18 14:56:48;;;;;;;;;;;;;;;-147.65;100.00;57646.63;10528186;28;20135;-79
2023/08/18 15:01:49;;;;;;;13.57;11.97;;;;;;;-147.65;100.00;57646.63;10531057;28;20020;-80
2023/08/18 15:06:51;;;;;;;14.10;11.45;;;;;;;-147.65;100.00;57646.63;10521598;28;20321;-79
2023/08/18 15:11:51;;;;;;;14.25;12.00;;;;;;;-147.65;100.00;57646.63;10520646;27;20047;-80
2023/08/18 15:16:52;;;;;;;26.00;12.40;;;;;;;-147.65;100.00;57646.63;10486106;28;20064;-79
2023/08/18 15:21:53;;;;;;;12.33;10.90;;;;;;;-147.65;100.00;57646.63;10487935;28;20032;-80
2023/08/18 15:26:53;;;;;;;14.80;12.97;;;;;;;-147.65;100.00;57646.63;10494908;28;20257;-82
2023/08/18 15:31:54;;;;;;;15.10;11.47;;;;;;;-147.65;100.00;57646.63;10528228;28;20044;-80
2023/08/18 15:36:54;;;;;;;20.33;13.77;;;;;;;-147.65;100.00;57646.63;10528166;28;20056;-80
2023/08/18 15:41:55;;;;;;;13.17;11.87;;;;;;;-147.65;100.00;57646.63;10527016;28;20357;-80
2023/08/18 15:46:55;;;;;;;11.40;10.07;;;;;;;-147.65;100.00;57646.63;10527622;28;20127;-80
2023/08/18 15:51:56;;;;;;;14.83;12.07;;;;;;;-147.65;100.00;57646.63;10526484;28;20126;-80
2023/08/18 15:56:56;;;;;;;23.80;17.77;;;;;;;-147.65;100.00;57646.63;10507505;28;20726;-80
2023/08/18 16:01:57;;;;;;;16.37;14.60;;;;;;;-147.65;100.00;57646.63;10530091;27;20036;-86
2023/08/18 16:06:58;;;;;;;14.60;13.05;;;;;;;-147.65;100.00;57646.63;10525941;28;20043;-84
2023/08/18 16:11:58;;;;;;;24.00;16.60;;;;;;;-147.65;100.00;57646.63;10526595;28;20459;-80
2023/08/18 16:16:59;;;;;;;16.07;14.37;;;;;;;-147.65;100.00;57646.63;10524661;28;20043;-79
2023/08/18 16:21:59;;;;;;;23.93;14.53;;;;;;;-147.65;100.00;57646.63;10524753;28;20100;-79
2023/08/18 16:27:00;;;;;;;19.43;14.20;;;;;;;-147.65;100.00;57646.63;10505746;28;20131;-79
2023/08/18 16:32:00;;;;;;;18.13;14.50;;;;;;;-147.65;100.00;57646.63;10524288;28;20032;-81
2023/08/18 16:37:01;;;;;;;24.13;17.70;;;;;;;-147.65;100.00;57646.63;10525005;28;20562;-81
2023/08/18 16:42:02;;;;;;;23.70;16.60;;;;;;;-147.65;100.00;57646.63;10525114;28;20042;-79
2023/08/18 16:47:03;;;;;;;22.00;15.93;;;;;;;-147.65;100.00;57646.63;10523770;28;20082;-81
2023/08/18 16:52:04;;;;;;;18.85;16.08;;;;;;;-147.65;100.00;57646.63;10523973;28;20119;-81
2023/08/18 16:57:04;;;;;;;22.75;17.63;;;;;;;-147.65;100.00;57646.63;10525262;28;20032;-80
2023/08/18 17:02:05;;;;;;;24.10;14.37;;;;;;;-147.65;100.00;57646.63;10525885;28;20051;-80
2023/08/18 17:07:05;;;;;;;25.50;16.53;;;;;;;-147.65;100.00;57646.63;10524164;28;20040;-80
2023/08/18 17:12:06;;;;;;;17.80;14.93;;;;;;;-147.65;100.00;57646.63;10507266;28;20114;-80
2023/08/18 17:17:07;;;;;;;19.43;13.83;;;;;;;-147.65;100.00;57646.63;10527132;28;20036;-80
2023/08/18 17:22:07;;;;;;;20.77;18.15;;;;;;;-147.65;100.00;57646.63;10532429;28;20127;-80
2023/08/18 17:27:08;;;;;;;23.93;17.53;;;;;;;-147.65;100.00;57646.63;10532571;28;20036;-80
2023/08/18 17:32:08;;;;;;;25.77;17.40;;;;;;;-147.65;100.00;57646.63;10533050;28;20531;-80
2023/08/18 17:37:09;;;;;;;23.00;19.00;;;;;;;-147.65;100.00;57646.63;10535246;28;20036;-80
2023/08/18 17:42:09;;;;;;;21.97;15.27;;;;;;;-147.65;100.00;57646.63;10531751;28;20031;-80
2023/08/18 17:47:10;;;;;;;21.90;16.80;;;;;;;-147.65;100.00;57646.63;10531410;28;20456;-80
2023/08/18 17:52:10;;;;;;;30.43;19.13;;;;;;;-147.65;100.00;57646.63;10533220;28;20032;-80
2023/08/18 17:57:11;;;;;;;26.40;19.93;;;;;;;-147.65;100.00;57646.63;10533046;28;20170;-81
2023/08/18 18:02:12;;;;;;;23.77;17.33;;;;;;;-147.65;100.00;57646.63;10531970;28;20159;-80
2023/08/18 18:07:12;;;;;;;27.60;18.13;;;;;;;-147.65;100.00;57646.63;10514762;28;20120;-80
2023/08/18 18:12:13;;;;;;;27.70;17.47;;;;;;;-147.65;100.00;57646.63;10531612;28;20127;-80
2023/08/18 18:17:14;;;;;;;25.63;19.10;;;;;;;-147.65;100.00;57646.63;10532591;28;20087;-80
2023/08/18 18:22:15;;;;;;;23.87;19.53;;;;;;;-147.65;100.00;57646.63;10530138;28;20154;-80
2023/08/18 18:27:15;;;;;;;29.40;21.00;;;;;;;-147.65;100.00;57646.63;10531994;28;20040;-80
2023/08/18 18:32:16;;;;;;;20.97;17.67;;;;;;;-147.65;100.00;57646.63;10530375;28;20051;-80
2023/08/18 18:37:17;;;;;;;34.40;24.03;;;;;;;-147.65;100.00;57646.63;10530537;28;20043;-80
2023/08/18 18:42:17;;;;;;;28.27;24.53;;;;;;;-147.65;100.00;57646.63;10529907;28;20039;-80
2023/08/18 18:47:18;;;;;;;45.97;26.93;;;;;;;-147.65;100.00;57646.63;10531632;28;20028;-80
2023/08/18 18:52:21;;;;;;;37.93;24.63;;;;;;;-147.65;100.00;57646.63;10529221;28;20109;-80
2023/08/18 18:57:21;;;;;;;41.25;27.92;;;;;;;-147.65;100.00;57646.63;10530823;28;20039;-79
2023/08/18 19:02:22;;;;;;;37.13;28.80;;;;;;;-147.65;100.00;57646.63;10513280;28;20492;-79
2023/08/18 19:07:22;;;;;;;36.60;26.03;;;;;;;-147.65;100.00;57646.63;10530433;28;20039;-80
2023/08/18 19:12:23;;;;;;;34.50;27.80;;;;;;;-147.65;100.00;57646.63;10528414;28;20066;-80
2023/08/18 19:17:23;;;;;;;43.90;35.40;;;;;;;-147.65;100.00;57646.63;10530069;28;20036;-80
2023/08/18 19:22:24;;;;;;;46.53;38.20;;;;;;;-147.65;100.00;57646.63;10528565;28;20491;-80
2023/08/18 19:27:26;;;;;;;47.13;36.83;;;;;;;-147.65;100.00;57646.63;10530172;28;20096;-80
2023/08/18 19:32:26;;;;;;;52.33;40.15;;;;;;;-147.65;100.00;57646.63;10528523;28;20433;-79
2023/08/18 19:37:27;;;;;;;48.40;35.53;;;;;;;-147.65;100.00;57646.63;10528316;28;20169;-80
2023/08/18 19:42:27;;;;;;;50.73;37.63;;;;;;;-147.65;100.00;57646.63;10528425;28;20067;-79
2023/08/18 19:47:28;;;;;;;54.63;40.60;;;;;;;-147.65;100.00;57646.63;10508198;28;20117;-79
2023/08/18 19:52:29;;;;;;;50.40;37.17;;;;;;;-147.65;100.00;57646.63;10528047;28;20067;-80
2023/08/18 19:57:30;;;;;;;58.33;38.97;;;;;;;-147.65;100.00;57646.63;10527918;28;20039;-80
2023/08/18 20:02:32;;;;;;;61.53;39.38;;;;;;;-147.65;100.00;57646.63;10528600;28;20068;-79
2023/08/18 20:07:32;;;;;;;58.13;41.28;;;;;;;-147.65;100.00;57646.63;10509395;28;20058;-79
2023/08/18 20:12:33;;;;;;;65.57;45.20;;;;;;;-147.65;100.00;57646.63;10528846;28;20040;-79
2023/08/18 20:17:34;;;;;;;58.70;41.83;;;;;;;-147.65;100.00;57646.63;10527796;28;20067;-80
2023/08/18 20:22:35;;;;;;;52.57;41.80;;;;;;;-147.65;100.00;57646.63;10509187;28;20055;-80
2023/08/18 20:27:36;;;;;;;66.27;46.00;;;;;;;-147.65;100.00;57646.63;10527215;28;20039;-80
2023/08/18 20:32:38;;;;;;;59.40;41.42;;;;;;;-147.65;100.00;57646.63;10526576;28;20040;-80
2023/08/18 20:37:39;;;;;;;50.25;38.00;;;;;;;-147.65;100.00;57646.63;10527097;28;20043;-80
2023/08/18 20:42:40;;;;;;;68.03;47.80;;;;;;;-147.65;100.00;57646.63;10525251;28;20032;-80
2023/08/18 20:47:41;;;;;;;66.40;45.40;;;;;;;-147.65;100.00;57646.63;10526352;28;20036;-80
2023/08/18 20:52:42;;;;;;;70.73;46.53;;;;;;;-147.65;100.00;57646.63;10508019;28;20116;-79
2023/08/18 20:57:42;;;;;;;71.00;48.97;;;;;;;-147.65;100.00;57646.63;10526783;28;20155;-79
2023/08/18 21:02:43;;;;;;;62.80;44.43;;;;;;;-147.65;100.00;57646.63;10524837;28;20433;-79
2023/08/18 21:07:43;;;;;;;61.63;45.43;;;;;;;-147.65;100.00;57646.63;10527142;28;20115;-79
2023/08/18 21:12:44;;;;;;;63.87;46.97;;;;;;;-147.65;100.00;57646.63;10524379;28;20040;-80
2023/08/18 21:17:44;;;;;;;75.70;52.50;;;;;;;-147.65;100.00;57646.63;10525757;28;20028;-79
2023/08/18 21:22:45;;;;;;;67.67;46.17;;;;;;;-147.65;100.00;57646.63;10525132;28;20131;-80
2023/08/18 21:27:46;;;;;;;70.40;41.40;;;;;;;-147.65;100.00;57646.63;10525601;28;20054;-80
2023/08/18 21:32:47;;;;;;;52.92;40.28;;;;;;;-147.65;100.00;57646.63;10507540;28;20111;-80
2023/08/18 21:37:47;;;;;;;50.67;36.87;;;;;;;-147.65;100.00;57646.63;10526442;28;20036;-80
2023/08/18 21:42:48;;;;;;;46.47;36.73;;;;;;;-147.65;100.00;57646.63;10525939;28;20040;-81
2023/08/18 21:47:49;;;;;;;47.80;37.17;;;;;;;-147.65;100.00;57646.63;10524263;28;20044;-80
2023/08/18 21:52:49;;;;;;;42.93;36.87;;;;;;;-147.65;100.00;57646.63;10525198;28;20115;-80
2023/08/18 21:57:50;;;;;;;42.97;34.93;;;;;;;-147.65;100.00;57646.63;10526431;28;20040;-81
2023/08/18 22:02:51;;;;;;;38.53;33.27;;;;;;;-147.65;100.00;57646.63;10526318;28;20472;-80
2023/08/18 22:07:51;;;;;;;45.83;34.27;;;;;;;-147.65;100.00;57646.63;10514534;28;20024;-80